sensor_id;sensor_type;location;lat;lon;timestamp;temperature;humidity
73665;DHT22;61964;52.052;4.474;2023-05-19T00:01:31;11.56;70.25
73665;DHT22;61964;52.052;4.474;2023-05-19T00:03:58;11.54;69.38
73665;DHT22;61964;52.052;4.474;2023-05-19T00:06:29;11.51;69.44
73665;DHT22;61964;52.052;4.474;2023-05-19T00:09:02;11.47;69.64
73665;DHT22;61964;52.052;4.474;2023-05-19T00:11:29;11.41;69.76
73665;DHT22;61964;52.052;4.474;2023-05-19T00:13:58;11.50;69.47
73665;DHT22;61964;52.052;4.474;2023-05-19T00:16:25;11.43;69.58
73665;DHT22;61964;52.052;4.474;2023-05-19T00:18:52;11.41;69.44
73665;DHT22;61964;52.052;4.474;2023-05-19T00:21:18;11.34;69.57
73665;DHT22;61964;52.052;4.474;2023-05-19T00:23:45;11.26;69.82
73665;DHT22;61964;52.052;4.474;2023-05-19T00:26:11;11.26;69.92
73665;DHT22;61964;52.052;4.474;2023-05-19T00:28:37;11.24;69.76
73665;DHT22;61964;52.052;4.474;2023-05-19T00:31:04;11.22;70.01
73665;DHT22;61964;52.052;4.474;2023-05-19T00:33:30;11.24;70.10
73665;DHT22;61964;52.052;4.474;2023-05-19T00:35:58;11.26;70.20
73665;DHT22;61964;52.052;4.474;2023-05-19T00:38:24;11.24;70.07
73665;DHT22;61964;52.052;4.474;2023-05-19T00:40:50;11.23;69.86
73665;DHT22;61964;52.052;4.474;2023-05-19T00:43:16;11.20;69.90
73665;DHT22;61964;52.052;4.474;2023-05-19T00:45:42;11.19;69.99
73665;DHT22;61964;52.052;4.474;2023-05-19T00:48:08;11.19;70.19
73665;DHT22;61964;52.052;4.474;2023-05-19T00:50:33;11.16;70.22
73665;DHT22;61964;52.052;4.474;2023-05-19T00:52:59;11.12;70.07
73665;DHT22;61964;52.052;4.474;2023-05-19T00:55:27;11.10;70.12
73665;DHT22;61964;52.052;4.474;2023-05-19T00:57:55;11.06;70.60
73665;DHT22;61964;52.052;4.474;2023-05-19T01:00:21;11.12;70.41
73665;DHT22;61964;52.052;4.474;2023-05-19T01:02:48;11.03;70.46
73665;DHT22;61964;52.052;4.474;2023-05-19T01:05:15;11.03;70.73
73665;DHT22;61964;52.052;4.474;2023-05-19T01:07:42;10.99;70.59
73665;DHT22;61964;52.052;4.474;2023-05-19T01:10:08;10.95;70.92
73665;DHT22;61964;52.052;4.474;2023-05-19T01:12:35;10.95;70.76
73665;DHT22;61964;52.052;4.474;2023-05-19T01:15:04;10.95;71.05
73665;DHT22;61964;52.052;4.474;2023-05-19T01:17:53;10.85;70.97
73665;DHT22;61964;52.052;4.474;2023-05-19T01:20:29;10.82;71.01
73665;DHT22;61964;52.052;4.474;2023-05-19T01:32:32;10.73;71.18
73665;DHT22;61964;52.052;4.474;2023-05-19T01:35:00;10.69;71.31
73665;DHT22;61964;52.052;4.474;2023-05-19T01:37:28;10.68;71.37
73665;DHT22;61964;52.052;4.474;2023-05-19T01:39:54;10.71;71.46
73665;DHT22;61964;52.052;4.474;2023-05-19T01:42:22;10.69;71.26
73665;DHT22;61964;52.052;4.474;2023-05-19T01:44:48;10.64;71.49
73665;DHT22;61964;52.052;4.474;2023-05-19T01:47:15;10.61;71.51
73665;DHT22;61964;52.052;4.474;2023-05-19T01:49:41;10.61;71.51
73665;DHT22;61964;52.052;4.474;2023-05-19T01:52:07;10.57;71.74
73665;DHT22;61964;52.052;4.474;2023-05-19T01:54:33;10.59;71.58
73665;DHT22;61964;52.052;4.474;2023-05-19T01:57:28;10.58;71.62
73665;DHT22;61964;52.052;4.474;2023-05-19T02:03:36;10.54;71.82
73665;DHT22;61964;52.052;4.474;2023-05-19T02:12:27;10.42;72.20
73665;DHT22;61964;52.052;4.474;2023-05-19T02:15:17;10.38;72.35
73665;DHT22;61964;52.052;4.474;2023-05-19T02:17:47;10.33;72.25
73665;DHT22;61964;52.052;4.474;2023-05-19T02:20:17;10.27;72.27
73665;DHT22;61964;52.052;4.474;2023-05-19T02:22:43;10.22;72.38
73665;DHT22;61964;52.052;4.474;2023-05-19T02:25:10;10.21;72.60
73665;DHT22;61964;52.052;4.474;2023-05-19T02:27:37;10.18;72.77
73665;DHT22;61964;52.052;4.474;2023-05-19T02:30:04;10.18;72.95
73665;DHT22;61964;52.052;4.474;2023-05-19T02:32:31;10.16;72.93
73665;DHT22;61964;52.052;4.474;2023-05-19T02:34:56;10.17;72.88
73665;DHT22;61964;52.052;4.474;2023-05-19T02:37:38;10.14;72.90
73665;DHT22;61964;52.052;4.474;2023-05-19T02:40:05;10.14;72.97
73665;DHT22;61964;52.052;4.474;2023-05-19T02:42:31;10.13;72.99
73665;DHT22;61964;52.052;4.474;2023-05-19T02:44:56;10.07;72.57
73665;DHT22;61964;52.052;4.474;2023-05-19T02:47:28;10.07;73.04
73665;DHT22;61964;52.052;4.474;2023-05-19T02:49:54;10.07;73.15
73665;DHT22;61964;52.052;4.474;2023-05-19T02:52:20;10.06;73.29
73665;DHT22;61964;52.052;4.474;2023-05-19T02:54:45;10.07;73.08
73665;DHT22;61964;52.052;4.474;2023-05-19T02:57:11;10.13;73.26
73665;DHT22;61964;52.052;4.474;2023-05-19T02:59:37;10.06;73.13
73665;DHT22;61964;52.052;4.474;2023-05-19T03:02:03;9.99;72.81
73665;DHT22;61964;52.052;4.474;2023-05-19T03:04:29;9.97;73.08
73665;DHT22;61964;52.052;4.474;2023-05-19T03:06:55;10.03;73.39
73665;DHT22;61964;52.052;4.474;2023-05-19T03:09:20;9.97;73.53
73665;DHT22;61964;52.052;4.474;2023-05-19T03:11:46;9.99;73.18
73665;DHT22;61964;52.052;4.474;2023-05-19T03:14:12;9.97;73.28
73665;DHT22;61964;52.052;4.474;2023-05-19T03:16:39;10.00;73.73
73665;DHT22;61964;52.052;4.474;2023-05-19T03:19:08;9.94;73.61
73665;DHT22;61964;52.052;4.474;2023-05-19T03:21:34;9.93;73.38
73665;DHT22;61964;52.052;4.474;2023-05-19T03:24:15;9.89;73.26
73665;DHT22;61964;52.052;4.474;2023-05-19T03:26:41;9.86;73.47
73665;DHT22;61964;52.052;4.474;2023-05-19T03:29:07;9.87;73.93
73665;DHT22;61964;52.052;4.474;2023-05-19T03:31:33;9.83;73.90
73665;DHT22;61964;52.052;4.474;2023-05-19T03:33:59;9.82;73.56
73665;DHT22;61964;52.052;4.474;2023-05-19T03:36:25;9.80;73.97
73665;DHT22;61964;52.052;4.474;2023-05-19T03:38:57;9.80;74.11
73665;DHT22;61964;52.052;4.474;2023-05-19T03:41:23;9.76;73.75
73665;DHT22;61964;52.052;4.474;2023-05-19T03:43:48;9.78;74.09
73665;DHT22;61964;52.052;4.474;2023-05-19T03:46:14;9.78;74.43
73665;DHT22;61964;52.052;4.474;2023-05-19T03:48:40;9.75;74.40
73665;DHT22;61964;52.052;4.474;2023-05-19T03:51:06;9.80;74.53
73665;DHT22;61964;52.052;4.474;2023-05-19T03:53:33;9.75;74.28
73665;DHT22;61964;52.052;4.474;2023-05-19T03:55:59;9.80;74.50
73665;DHT22;61964;52.052;4.474;2023-05-19T03:58:25;9.83;74.46
73665;DHT22;61964;52.052;4.474;2023-05-19T04:00:51;9.83;74.45
73665;DHT22;61964;52.052;4.474;2023-05-19T04:03:17;9.85;74.42
73665;DHT22;61964;52.052;4.474;2023-05-19T04:05:42;9.87;74.29
73665;DHT22;61964;52.052;4.474;2023-05-19T04:08:08;9.90;74.23
73665;DHT22;61964;52.052;4.474;2023-05-19T04:10:34;9.93;74.47
73665;DHT22;61964;52.052;4.474;2023-05-19T04:13:00;9.94;74.61
73665;DHT22;61964;52.052;4.474;2023-05-19T04:15:26;9.96;74.33
73665;DHT22;61964;52.052;4.474;2023-05-19T04:17:52;10.06;74.33
73665;DHT22;61964;52.052;4.474;2023-05-19T04:20:17;10.01;74.61
73665;DHT22;61964;52.052;4.474;2023-05-19T04:22:43;10.03;74.20
73665;DHT22;61964;52.052;4.474;2023-05-19T04:25:24;10.10;74.16
73665;DHT22;61964;52.052;4.474;2023-05-19T04:27:52;10.13;74.28
73665;DHT22;61964;52.052;4.474;2023-05-19T04:30:22;10.16;74.42
73665;DHT22;61964;52.052;4.474;2023-05-19T04:32:49;10.17;74.17
73665;DHT22;61964;52.052;4.474;2023-05-19T04:35:17;10.27;73.89
73665;DHT22;61964;52.052;4.474;2023-05-19T04:37:44;10.24;74.18
73665;DHT22;61964;52.052;4.474;2023-05-19T04:40:13;10.27;74.00
73665;DHT22;61964;52.052;4.474;2023-05-19T04:42:54;10.33;74.02
73665;DHT22;61964;52.052;4.474;2023-05-19T04:45:20;10.42;73.61
73665;DHT22;61964;52.052;4.474;2023-05-19T04:47:47;10.49;73.60
73665;DHT22;61964;52.052;4.474;2023-05-19T04:50:14;10.57;73.67
73665;DHT22;61964;52.052;4.474;2023-05-19T04:52:41;10.71;72.91
73665;DHT22;61964;52.052;4.474;2023-05-19T04:55:16;10.76;73.01
73665;DHT22;61964;52.052;4.474;2023-05-19T04:57:42;10.86;72.58
73665;DHT22;61964;52.052;4.474;2023-05-19T05:00:08;10.81;72.69
73665;DHT22;61964;52.052;4.474;2023-05-19T05:02:37;10.91;72.78
73665;DHT22;61964;52.052;4.474;2023-05-19T05:05:03;11.03;72.43
73665;DHT22;61964;52.052;4.474;2023-05-19T05:07:29;10.99;72.36
73665;DHT22;61964;52.052;4.474;2023-05-19T05:09:55;11.02;72.47
73665;DHT22;61964;52.052;4.474;2023-05-19T05:12:21;11.08;72.03
73665;DHT22;61964;52.052;4.474;2023-05-19T05:14:50;11.13;72.17
73665;DHT22;61964;52.052;4.474;2023-05-19T05:17:16;11.12;72.20
73665;DHT22;61964;52.052;4.474;2023-05-19T05:19:42;11.02;72.52
73665;DHT22;61964;52.052;4.474;2023-05-19T05:22:09;11.03;72.74
73665;DHT22;61964;52.052;4.474;2023-05-19T05:24:35;11.08;72.77
73665;DHT22;61964;52.052;4.474;2023-05-19T05:27:01;11.22;72.43
73665;DHT22;61964;52.052;4.474;2023-05-19T05:29:26;11.37;72.25
73665;DHT22;61964;52.052;4.474;2023-05-19T05:31:52;11.54;72.09
73665;DHT22;61964;52.052;4.474;2023-05-19T05:34:18;11.75;70.97
73665;DHT22;61964;52.052;4.474;2023-05-19T05:36:44;11.88;70.46
73665;DHT22;61964;52.052;4.474;2023-05-19T05:39:09;11.90;71.21
73665;DHT22;61964;52.052;4.474;2023-05-19T05:41:35;12.11;70.84
73665;DHT22;61964;52.052;4.474;2023-05-19T05:44:01;13.04;68.53
73665;DHT22;61964;52.052;4.474;2023-05-19T05:46:28;14.58;64.10
73665;DHT22;61964;52.052;4.474;2023-05-19T05:48:54;15.46;61.03
73665;DHT22;61964;52.052;4.474;2023-05-19T05:51:21;16.24;58.70
73665;DHT22;61964;52.052;4.474;2023-05-19T05:53:51;16.77;57.08
73665;DHT22;61964;52.052;4.474;2023-05-19T05:56:18;16.61;56.52
73665;DHT22;61964;52.052;4.474;2023-05-19T05:58:44;16.63;57.13
73665;DHT22;61964;52.052;4.474;2023-05-19T06:01:10;16.62;57.34
73665;DHT22;61964;52.052;4.474;2023-05-19T06:03:39;16.53;57.15
73665;DHT22;61964;52.052;4.474;2023-05-19T06:06:20;16.82;56.91
73665;DHT22;61964;52.052;4.474;2023-05-19T06:08:46;16.69;56.69
73665;DHT22;61964;52.052;4.474;2023-05-19T06:11:12;16.96;56.36
73665;DHT22;61964;52.052;4.474;2023-05-19T06:13:38;17.24;55.13
73665;DHT22;61964;52.052;4.474;2023-05-19T06:16:10;17.51;54.69
73665;DHT22;61964;52.052;4.474;2023-05-19T06:18:36;17.83;53.28
73665;DHT22;61964;52.052;4.474;2023-05-19T06:21:01;17.88;52.84
73665;DHT22;61964;52.052;4.474;2023-05-19T06:23:29;18.08;53.29
73665;DHT22;61964;52.052;4.474;2023-05-19T06:25:55;18.26;52.30
73665;DHT22;61964;52.052;4.474;2023-05-19T06:28:21;18.16;52.54
73665;DHT22;61964;52.052;4.474;2023-05-19T06:30:47;17.51;53.65
73665;DHT22;61964;52.052;4.474;2023-05-19T06:33:12;17.81;53.77
73665;DHT22;61964;52.052;4.474;2023-05-19T06:35:38;18.43;51.48
73665;DHT22;61964;52.052;4.474;2023-05-19T06:38:04;19.10;50.03
73665;DHT22;61964;52.052;4.474;2023-05-19T06:40:29;19.36;48.75
73665;DHT22;61964;52.052;4.474;2023-05-19T06:42:55;19.28;48.72
73665;DHT22;61964;52.052;4.474;2023-05-19T06:45:22;19.11;49.40
73665;DHT22;61964;52.052;4.474;2023-05-19T06:47:48;19.29;49.13
73665;DHT22;61964;52.052;4.474;2023-05-19T06:50:14;19.63;48.18
73665;DHT22;61964;52.052;4.474;2023-05-19T06:52:39;19.66;48.24
73665;DHT22;61964;52.052;4.474;2023-05-19T06:55:05;19.73;48.38
73665;DHT22;61964;52.052;4.474;2023-05-19T06:57:31;19.56;47.97
73665;DHT22;61964;52.052;4.474;2023-05-19T06:59:57;19.19;48.64
73665;DHT22;61964;52.052;4.474;2023-05-19T07:02:23;19.36;48.60
73665;DHT22;61964;52.052;4.474;2023-05-19T07:04:48;18.87;49.62
73665;DHT22;61964;52.052;4.474;2023-05-19T07:07:17;18.02;51.83
73665;DHT22;61964;52.052;4.474;2023-05-19T07:09:43;18.30;51.43
73665;DHT22;61964;52.052;4.474;2023-05-19T07:12:08;19.14;49.65
73665;DHT22;61964;52.052;4.474;2023-05-19T07:14:34;19.74;48.01
73665;DHT22;61964;52.052;4.474;2023-05-19T07:17:01;19.53;48.69
73665;DHT22;61964;52.052;4.474;2023-05-19T07:19:27;20.20;46.66
73665;DHT22;61964;52.052;4.474;2023-05-19T07:21:53;20.62;45.75
73665;DHT22;61964;52.052;4.474;2023-05-19T07:24:19;20.96;45.58
73665;DHT22;61964;52.052;4.474;2023-05-19T07:26:46;21.32;43.52
73665;DHT22;61964;52.052;4.474;2023-05-19T07:29:12;21.73;43.98
73665;DHT22;61964;52.052;4.474;2023-05-19T07:31:38;21.85;43.50
73665;DHT22;61964;52.052;4.474;2023-05-19T07:34:04;22.01;44.23
73665;DHT22;61964;52.052;4.474;2023-05-19T07:36:30;21.67;42.98
73665;DHT22;61964;52.052;4.474;2023-05-19T07:38:55;20.55;45.59
73665;DHT22;61964;52.052;4.474;2023-05-19T07:41:21;20.31;46.15
73665;DHT22;61964;52.052;4.474;2023-05-19T07:43:47;20.95;45.23
73665;DHT22;61964;52.052;4.474;2023-05-19T07:46:13;21.51;44.58
73665;DHT22;61964;52.052;4.474;2023-05-19T07:48:39;21.88;43.14
73665;DHT22;61964;52.052;4.474;2023-05-19T07:51:11;22.52;40.21
73665;DHT22;61964;52.052;4.474;2023-05-19T07:53:37;21.51;42.31
73665;DHT22;61964;52.052;4.474;2023-05-19T07:56:03;21.30;43.21
73665;DHT22;61964;52.052;4.474;2023-05-19T07:58:29;21.12;42.81
73665;DHT22;61964;52.052;4.474;2023-05-19T08:00:56;21.00;43.55
73665;DHT22;61964;52.052;4.474;2023-05-19T08:03:23;20.48;45.53
73665;DHT22;61964;52.052;4.474;2023-05-19T08:05:49;19.82;45.84
73665;DHT22;61964;52.052;4.474;2023-05-19T08:08:14;20.01;45.66
73665;DHT22;61964;52.052;4.474;2023-05-19T08:10:45;20.41;44.12
73665;DHT22;61964;52.052;4.474;2023-05-19T08:13:10;20.98;42.09
73665;DHT22;61964;52.052;4.474;2023-05-19T08:15:36;21.40;41.95
73665;DHT22;61964;52.052;4.474;2023-05-19T08:18:02;21.43;41.91
73665;DHT22;61964;52.052;4.474;2023-05-19T08:20:30;21.49;41.76
73665;DHT22;61964;52.052;4.474;2023-05-19T08:22:55;21.14;41.32
73665;DHT22;61964;52.052;4.474;2023-05-19T08:25:22;20.47;42.67
73665;DHT22;61964;52.052;4.474;2023-05-19T08:27:48;19.98;45.52
73665;DHT22;61964;52.052;4.474;2023-05-19T08:30:14;20.10;43.64
73665;DHT22;61964;52.052;4.474;2023-05-19T08:32:40;20.09;43.93
73665;DHT22;61964;52.052;4.474;2023-05-19T08:35:06;20.52;44.30
73665;DHT22;61964;52.052;4.474;2023-05-19T08:37:32;20.40;41.94
73665;DHT22;61964;52.052;4.474;2023-05-19T08:39:58;20.81;41.00
73665;DHT22;61964;52.052;4.474;2023-05-19T08:42:24;21.46;41.07
73665;DHT22;61964;52.052;4.474;2023-05-19T08:44:49;22.26;39.52
73665;DHT22;61964;52.052;4.474;2023-05-19T08:47:21;22.63;38.55
73665;DHT22;61964;52.052;4.474;2023-05-19T08:49:51;22.55;39.61
73665;DHT22;61964;52.052;4.474;2023-05-19T08:52:55;23.07;38.78
73665;DHT22;61964;52.052;4.474;2023-05-19T08:55:35;23.55;35.90
73665;DHT22;61964;52.052;4.474;2023-05-19T08:58:03;22.86;36.34
73665;DHT22;61964;52.052;4.474;2023-05-19T09:00:29;22.64;36.49
73665;DHT22;61964;52.052;4.474;2023-05-19T09:02:55;22.63;37.56
73665;DHT22;61964;52.052;4.474;2023-05-19T09:05:22;22.81;36.41
73665;DHT22;61964;52.052;4.474;2023-05-19T09:07:48;22.69;37.94
73665;DHT22;61964;52.052;4.474;2023-05-19T09:10:14;22.87;35.40
73665;DHT22;61964;52.052;4.474;2023-05-19T09:12:43;22.77;35.38
73665;DHT22;61964;52.052;4.474;2023-05-19T09:15:11;23.11;36.17
73665;DHT22;61964;52.052;4.474;2023-05-19T09:17:37;23.54;34.08
73665;DHT22;61964;52.052;4.474;2023-05-19T09:20:06;23.82;38.96
73665;DHT22;61964;52.052;4.474;2023-05-19T09:22:43;23.63;36.33
73665;DHT22;61964;52.052;4.474;2023-05-19T09:25:50;24.34;33.24
73665;DHT22;61964;52.052;4.474;2023-05-19T09:31:12;24.68;32.78
73665;DHT22;61964;52.052;4.474;2023-05-19T09:33:40;24.46;32.68
73665;DHT22;61964;52.052;4.474;2023-05-19T09:36:13;24.20;30.91
73665;DHT22;61964;52.052;4.474;2023-05-19T09:38:39;23.73;33.92
73665;DHT22;61964;52.052;4.474;2023-05-19T09:41:06;23.10;34.09
73665;DHT22;61964;52.052;4.474;2023-05-19T09:43:34;23.07;35.06
73665;DHT22;61964;52.052;4.474;2023-05-19T09:46:12;23.59;34.45
73665;DHT22;61964;52.052;4.474;2023-05-19T09:48:38;23.30;35.30
73665;DHT22;61964;52.052;4.474;2023-05-19T09:51:06;23.27;34.30
73665;DHT22;61964;52.052;4.474;2023-05-19T09:53:33;23.18;36.44
73665;DHT22;61964;52.052;4.474;2023-05-19T09:56:00;23.78;35.45
73665;DHT22;61964;52.052;4.474;2023-05-19T09:58:30;23.93;32.04
73665;DHT22;61964;52.052;4.474;2023-05-19T10:01:05;24.78;31.99
73665;DHT22;61964;52.052;4.474;2023-05-19T10:03:32;25.14;32.36
73665;DHT22;61964;52.052;4.474;2023-05-19T10:08:42;24.64;31.37
73665;DHT22;61964;52.052;4.474;2023-05-19T10:11:08;24.61;29.92
73665;DHT22;61964;52.052;4.474;2023-05-19T10:13:35;23.96;29.73
73665;DHT22;61964;52.052;4.474;2023-05-19T10:16:02;23.86;30.77
73665;DHT22;61964;52.052;4.474;2023-05-19T10:18:32;24.29;28.64
73665;DHT22;61964;52.052;4.474;2023-05-19T10:20:59;24.17;38.12
73665;DHT22;61964;52.052;4.474;2023-05-19T10:23:25;24.06;32.05
73665;DHT22;61964;52.052;4.474;2023-05-19T10:25:55;24.13;32.11
73665;DHT22;61964;52.052;4.474;2023-05-19T10:28:24;24.56;31.78
73665;DHT22;61964;52.052;4.474;2023-05-19T10:30:56;24.56;31.52
73665;DHT22;61964;52.052;4.474;2023-05-19T10:33:40;23.85;33.67
73665;DHT22;61964;52.052;4.474;2023-05-19T10:39:33;23.27;34.47
73665;DHT22;61964;52.052;4.474;2023-05-19T10:42:32;23.95;35.26
73665;DHT22;61964;52.052;4.474;2023-05-19T10:45:27;24.68;32.57
73665;DHT22;61964;52.052;4.474;2023-05-19T10:47:55;24.12;31.86
73665;DHT22;61964;52.052;4.474;2023-05-19T10:50:21;24.12;33.02
73665;DHT22;61964;52.052;4.474;2023-05-19T10:52:55;24.12;32.50
73665;DHT22;61964;52.052;4.474;2023-05-19T10:55:44;24.36;32.96
73665;DHT22;61964;52.052;4.474;2023-05-19T10:58:10;24.63;33.12
73665;DHT22;61964;52.052;4.474;2023-05-19T11:00:38;24.51;32.35
73665;DHT22;61964;52.052;4.474;2023-05-19T11:03:12;24.65;32.15
73665;DHT22;61964;52.052;4.474;2023-05-19T11:05:38;23.88;33.96
73665;DHT22;61964;52.052;4.474;2023-05-19T11:08:05;23.15;34.98
73665;DHT22;61964;52.052;4.474;2023-05-19T11:10:36;22.74;34.20
73665;DHT22;61964;52.052;4.474;2023-05-19T11:13:03;22.96;34.95
73665;DHT22;61964;52.052;4.474;2023-05-19T11:15:34;22.81;35.06
73665;DHT22;61964;52.052;4.474;2023-05-19T11:18:01;22.77;34.41
73665;DHT22;61964;52.052;4.474;2023-05-19T11:20:28;23.58;33.61
73665;DHT22;61964;52.052;4.474;2023-05-19T11:23:07;24.56;32.81
73665;DHT22;61964;52.052;4.474;2023-05-19T11:25:51;24.80;32.35
73665;DHT22;61964;52.052;4.474;2023-05-19T11:28:22;23.45;34.44
73665;DHT22;61964;52.052;4.474;2023-05-19T11:30:57;23.20;33.63
73665;DHT22;61964;52.052;4.474;2023-05-19T11:33:24;23.13;34.03
73665;DHT22;61964;52.052;4.474;2023-05-19T11:35:56;23.47;33.90
73665;DHT22;61964;52.052;4.474;2023-05-19T11:38:22;22.62;36.12
73665;DHT22;61964;52.052;4.474;2023-05-19T11:40:52;22.16;37.28
73665;DHT22;61964;52.052;4.474;2023-05-19T11:43:18;21.65;38.92
73665;DHT22;61964;52.052;4.474;2023-05-19T11:45:44;22.69;36.63
73665;DHT22;61964;52.052;4.474;2023-05-19T11:48:11;23.35;35.76
73665;DHT22;61964;52.052;4.474;2023-05-19T11:50:39;23.66;33.24
73665;DHT22;61964;52.052;4.474;2023-05-19T11:53:06;23.55;33.38
73665;DHT22;61964;52.052;4.474;2023-05-19T11:55:32;23.01;33.96
73665;DHT22;61964;52.052;4.474;2023-05-19T11:57:59;23.07;33.90
73665;DHT22;61964;52.052;4.474;2023-05-19T12:00:27;22.77;34.96
73665;DHT22;61964;52.052;4.474;2023-05-19T12:02:54;22.26;35.88
73665;DHT22;61964;52.052;4.474;2023-05-19T12:05:22;22.53;36.15
73665;DHT22;61964;52.052;4.474;2023-05-19T12:07:49;22.62;37.05
73665;DHT22;61964;52.052;4.474;2023-05-19T12:10:42;22.86;36.04
73665;DHT22;61964;52.052;4.474;2023-05-19T12:13:08;22.69;35.01
73665;DHT22;61964;52.052;4.474;2023-05-19T12:15:34;22.80;35.74
73665;DHT22;61964;52.052;4.474;2023-05-19T12:18:01;23.04;35.44
73665;DHT22;61964;52.052;4.474;2023-05-19T12:20:29;22.91;36.22
73665;DHT22;61964;52.052;4.474;2023-05-19T12:23:00;22.80;35.29
73665;DHT22;61964;52.052;4.474;2023-05-19T12:25:27;21.97;36.21
73665;DHT22;61964;52.052;4.474;2023-05-19T12:27:57;21.85;40.45
73665;DHT22;61964;52.052;4.474;2023-05-19T12:30:26;21.80;37.95
73665;DHT22;61964;52.052;4.474;2023-05-19T12:32:54;21.33;36.80
73665;DHT22;61964;52.052;4.474;2023-05-19T12:35:26;21.03;36.98
73665;DHT22;61964;52.052;4.474;2023-05-19T12:37:52;21.16;37.52
73665;DHT22;61964;52.052;4.474;2023-05-19T12:40:19;21.33;37.36
73665;DHT22;61964;52.052;4.474;2023-05-19T12:42:45;21.63;36.49
73665;DHT22;61964;52.052;4.474;2023-05-19T12:45:11;22.21;41.89
73665;DHT22;61964;52.052;4.474;2023-05-19T12:47:36;22.41;36.19
73665;DHT22;61964;52.052;4.474;2023-05-19T12:50:05;21.73;36.68
73665;DHT22;61964;52.052;4.474;2023-05-19T12:52:40;21.49;36.91
73665;DHT22;61964;52.052;4.474;2023-05-19T12:55:07;21.34;36.17
73665;DHT22;61964;52.052;4.474;2023-05-19T12:57:40;21.19;36.74
73665;DHT22;61964;52.052;4.474;2023-05-19T13:00:26;21.19;36.46
73665;DHT22;61964;52.052;4.474;2023-05-19T13:03:17;21.06;36.37
73665;DHT22;61964;52.052;4.474;2023-05-19T13:05:48;21.06;36.52
73665;DHT22;61964;52.052;4.474;2023-05-19T13:08:16;20.93;37.10
73665;DHT22;61964;52.052;4.474;2023-05-19T13:10:44;20.83;37.62
73665;DHT22;61964;52.052;4.474;2023-05-19T13:13:11;20.88;37.06
73665;DHT22;61964;52.052;4.474;2023-05-19T13:15:40;20.55;37.18
73665;DHT22;61964;52.052;4.474;2023-05-19T13:18:08;20.69;37.83
73665;DHT22;61964;52.052;4.474;2023-05-19T13:20:38;20.99;37.93
73665;DHT22;61964;52.052;4.474;2023-05-19T13:23:05;20.99;38.94
73665;DHT22;61964;52.052;4.474;2023-05-19T13:25:32;21.27;37.28
73665;DHT22;61964;52.052;4.474;2023-05-19T13:28:00;21.27;35.89
73665;DHT22;61964;52.052;4.474;2023-05-19T13:30:28;21.41;36.86
73665;DHT22;61964;52.052;4.474;2023-05-19T13:32:53;21.46;37.35
73665;DHT22;61964;52.052;4.474;2023-05-19T13:35:20;21.36;35.93
73665;DHT22;61964;52.052;4.474;2023-05-19T13:37:46;21.07;36.15
73665;DHT22;61964;52.052;4.474;2023-05-19T13:40:13;21.14;37.14
73665;DHT22;61964;52.052;4.474;2023-05-19T13:42:40;21.13;36.61
73665;DHT22;61964;52.052;4.474;2023-05-19T13:45:06;21.26;37.09
73665;DHT22;61964;52.052;4.474;2023-05-19T13:47:32;21.33;36.83
73665;DHT22;61964;52.052;4.474;2023-05-19T13:49:58;21.14;36.14
73665;DHT22;61964;52.052;4.474;2023-05-19T13:52:24;20.61;36.92
73665;DHT22;61964;52.052;4.474;2023-05-19T13:54:50;20.55;38.96
73665;DHT22;61964;52.052;4.474;2023-05-19T13:57:19;20.91;37.13
73665;DHT22;61964;52.052;4.474;2023-05-19T13:59:44;20.88;36.36
73665;DHT22;61964;52.052;4.474;2023-05-19T14:02:10;20.92;37.08
73665;DHT22;61964;52.052;4.474;2023-05-19T14:04:37;21.10;36.58
73665;DHT22;61964;52.052;4.474;2023-05-19T14:07:04;21.13;35.50
73665;DHT22;61964;52.052;4.474;2023-05-19T14:09:30;21.22;36.90
73665;DHT22;61964;52.052;4.474;2023-05-19T14:11:56;21.20;35.92
73665;DHT22;61964;52.052;4.474;2023-05-19T14:14:22;21.22;36.95
73665;DHT22;61964;52.052;4.474;2023-05-19T14:16:48;21.33;35.15
73665;DHT22;61964;52.052;4.474;2023-05-19T14:19:13;21.53;35.66
73665;DHT22;61964;52.052;4.474;2023-05-19T14:21:39;21.85;35.50
73665;DHT22;61964;52.052;4.474;2023-05-19T14:24:05;21.82;34.70
73665;DHT22;61964;52.052;4.474;2023-05-19T14:26:31;21.85;35.92
73665;DHT22;61964;52.052;4.474;2023-05-19T14:28:56;21.81;33.88
73665;DHT22;61964;52.052;4.474;2023-05-19T14:31:23;21.50;36.92
73665;DHT22;61964;52.052;4.474;2023-05-19T14:33:51;21.19;34.97
73665;DHT22;61964;52.052;4.474;2023-05-19T14:36:17;20.98;38.58
73665;DHT22;61964;52.052;4.474;2023-05-19T14:38:43;21.30;35.83
73665;DHT22;61964;52.052;4.474;2023-05-19T14:41:09;21.14;36.43
73665;DHT22;61964;52.052;4.474;2023-05-19T14:43:35;21.34;37.05
73665;DHT22;61964;52.052;4.474;2023-05-19T14:46:00;21.37;34.65
73665;DHT22;61964;52.052;4.474;2023-05-19T14:48:26;21.36;35.71
73665;DHT22;61964;52.052;4.474;2023-05-19T14:50:52;21.39;39.76
73665;DHT22;61964;52.052;4.474;2023-05-19T14:53:18;21.61;35.61
73665;DHT22;61964;52.052;4.474;2023-05-19T14:55:46;21.32;35.60
73665;DHT22;61964;52.052;4.474;2023-05-19T14:58:11;20.96;37.30
73665;DHT22;61964;52.052;4.474;2023-05-19T15:00:38;20.85;36.70
73665;DHT22;61964;52.052;4.474;2023-05-19T15:03:06;20.81;37.13
73665;DHT22;61964;52.052;4.474;2023-05-19T15:05:32;20.65;37.06
73665;DHT22;61964;52.052;4.474;2023-05-19T15:07:58;20.76;37.48
73665;DHT22;61964;52.052;4.474;2023-05-19T15:10:23;20.75;37.86
73665;DHT22;61964;52.052;4.474;2023-05-19T15:12:49;20.67;37.55
73665;DHT22;61964;52.052;4.474;2023-05-19T15:15:15;20.71;37.41
73665;DHT22;61964;52.052;4.474;2023-05-19T15:17:42;20.78;38.45
73665;DHT22;61964;52.052;4.474;2023-05-19T15:20:08;20.78;36.34
73665;DHT22;61964;52.052;4.474;2023-05-19T15:22:34;20.64;37.40
73665;DHT22;61964;52.052;4.474;2023-05-19T15:24:59;20.64;39.97
73665;DHT22;61964;52.052;4.474;2023-05-19T15:27:25;20.61;36.76
73665;DHT22;61964;52.052;4.474;2023-05-19T15:30:03;20.37;36.58
73665;DHT22;61964;52.052;4.474;2023-05-19T15:32:30;20.44;37.97
73665;DHT22;61964;52.052;4.474;2023-05-19T15:34:56;20.51;37.18
73665;DHT22;61964;52.052;4.474;2023-05-19T15:37:22;20.45;37.18
73665;DHT22;61964;52.052;4.474;2023-05-19T15:39:48;20.37;38.00
73665;DHT22;61964;52.052;4.474;2023-05-19T15:42:14;20.45;37.23
73665;DHT22;61964;52.052;4.474;2023-05-19T15:44:39;20.45;37.08
73665;DHT22;61964;52.052;4.474;2023-05-19T15:47:05;20.38;37.16
73665;DHT22;61964;52.052;4.474;2023-05-19T15:49:31;20.22;37.28
73665;DHT22;61964;52.052;4.474;2023-05-19T15:51:56;20.30;39.70
73665;DHT22;61964;52.052;4.474;2023-05-19T15:54:22;20.28;37.82
73665;DHT22;61964;52.052;4.474;2023-05-19T15:56:49;20.35;37.44
73665;DHT22;61964;52.052;4.474;2023-05-19T15:59:15;20.18;38.40
73665;DHT22;61964;52.052;4.474;2023-05-19T16:01:41;20.11;37.58
73665;DHT22;61964;52.052;4.474;2023-05-19T16:04:07;20.17;37.80
73665;DHT22;61964;52.052;4.474;2023-05-19T16:06:32;20.30;37.90